Time;durP1;ratioP1;P1;durP2;ratioP2;P2;SDS_P1;SDS_P2;PMS_P1;PMS_P2;Temp;Humidity;BMP_temperature;BMP_pressure;BME280_temperature;BME280_humidity;BME280_pressure;Samples;Min_cycle;Max_cycle;Signal;HPM_P1;HPM_P2
2023/08/03 00:01:34;;;;;;;3.90;2.50;;;;;;;20.02;57.57;99056.38;103938;277;39724;-75
2023/08/03 00:04:09;;;;;;;4.30;2.50;;;;;;;20.03;57.80;99061.46;103968;277;39014;-75
2023/08/03 00:06:45;;;;;;;3.70;2.50;;;;;;;20.03;57.80;99065.30;104017;277;38975;-75
2023/08/03 00:09:19;;;;;;;4.80;2.60;;;;;;;20.04;57.78;99050.39;103956;277;38746;-76
2023/08/03 00:11:57;;;;;;;3.10;2.60;;;;;;;20.04;57.84;99048.56;103967;277;39641;-74
2023/08/03 00:14:31;;;;;;;3.80;2.40;;;;;;;20.05;57.92;99045.69;103841;278;38242;-74
2023/08/03 00:17:06;;;;;;;4.30;2.60;;;;;;;20.05;57.96;99039.64;104040;277;38367;-75
2023/08/03 00:19:40;;;;;;;3.60;2.40;;;;;;;20.06;57.92;99033.71;103795;279;38420;-76
2023/08/03 00:22:14;;;;;;;3.20;2.30;;;;;;;20.07;57.89;99030.27;103792;279;38249;-75
2023/08/03 00:24:49;;;;;;;3.10;2.60;;;;;;;20.07;58.04;99032.49;103978;277;38466;-73
2023/08/03 00:27:23;;;;;;;3.40;2.50;;;;;;;20.08;58.15;99034.59;103993;277;39399;-74
2023/08/03 00:30:01;;;;;;;3.90;2.60;;;;;;;20.08;58.12;99033.30;103981;277;38275;-75
2023/08/03 00:32:38;;;;;;;5.10;3.10;;;;;;;20.09;58.07;99018.48;104023;277;38397;-74
2023/08/03 00:35:14;;;;;;;3.40;2.50;;;;;;;20.09;58.15;99018.83;103947;277;38538;-75
2023/08/03 00:37:49;;;;;;;3.20;2.30;;;;;;;20.10;58.03;99024.45;103986;277;38649;-75
2023/08/03 00:40:23;;;;;;;3.30;2.40;;;;;;;20.10;58.25;99020.88;104002;277;40208;-76
2023/08/03 00:42:59;;;;;;;3.80;2.20;;;;;;;20.11;58.20;99025.29;104028;277;38251;-76
2023/08/03 00:45:39;;;;;;;3.10;2.50;;;;;;;20.11;58.24;99012.48;103971;277;38404;-75
2023/08/03 00:48:15;;;;;;;3.90;2.50;;;;;;;20.11;58.26;99008.40;103757;277;39308;-74
2023/08/03 00:50:51;;;;;;;3.80;2.70;;;;;;;20.13;58.18;99005.45;103998;277;39710;-75
2023/08/03 00:53:28;;;;;;;3.90;2.50;;;;;;;20.14;58.17;99009.41;104038;277;39456;-76
2023/08/03 00:56:04;;;;;;;3.10;2.40;;;;;;;20.15;58.18;99016.95;104013;277;39322;-75
2023/08/03 00:58:42;;;;;;;3.60;2.40;;;;;;;20.15;58.31;99015.98;103800;277;38392;-75
2023/08/03 01:01:16;;;;;;;3.30;2.40;;;;;;;20.16;58.51;99001.71;104034;277;39423;-76
2023/08/03 01:03:50;;;;;;;3.10;2.60;;;;;;;20.17;58.47;98997.09;104018;277;38617;-75
2023/08/03 01:06:27;;;;;;;4.00;2.30;;;;;;;20.17;58.52;98996.16;103770;277;39351;-76
2023/08/03 01:09:05;;;;;;;4.40;2.70;;;;;;;20.17;58.56;98998.30;103997;277;38801;-75
2023/08/03 01:11:48;;;;;;;3.40;2.50;;;;;;;20.17;58.74;98998.15;104051;277;38216;-75
2023/08/03 01:14:28;;;;;;;3.40;2.70;;;;;;;20.16;58.76;98982.95;103920;277;38849;-75
2023/08/03 01:17:04;;;;;;;3.70;2.50;;;;;;;20.16;59.01;98971.48;103987;277;38464;-74
2023/08/03 01:19:43;;;;;;;3.60;2.50;;;;;;;20.16;59.03;98973.10;103859;277;174855;-74
2023/08/03 01:22:20;;;;;;;3.20;2.20;;;;;;;20.15;59.18;98973.48;104015;277;39672;-77
2023/08/03 01:24:54;;;;;;;3.70;2.40;;;;;;;20.16;59.26;98976.08;103945;277;38265;-76
2023/08/03 01:27:31;;;;;;;3.30;2.30;;;;;;;20.17;59.31;98976.64;104006;277;38432;-75
2023/08/03 01:30:08;;;;;;;5.00;2.20;;;;;;;20.19;59.31;98975.46;104004;277;38510;-75
2023/08/03 01:32:43;;;;;;;5.70;2.40;;;;;;;20.20;59.27;98965.72;104060;277;39404;-76
2023/08/03 01:35:21;;;;;;;4.90;2.40;;;;;;;20.22;59.14;98957.42;104021;277;38545;-76
2023/08/03 01:37:58;;;;;;;2.60;2.30;;;;;;;20.22;59.25;98949.99;104019;277;39433;-76
2023/08/03 01:40:34;;;;;;;4.10;2.20;;;;;;;20.21;59.10;98951.70;103842;277;39108;-76
2023/08/03 01:43:10;;;;;;;3.30;2.50;;;;;;;20.19;59.17;98954.02;104046;277;39471;-74
2023/08/03 01:45:46;;;;;;;3.30;2.40;;;;;;;20.17;58.99;98950.31;103998;277;38540;-74
2023/08/03 01:48:21;;;;;;;2.50;2.00;;;;;;;20.15;59.05;98957.03;104038;277;38233;-75
2023/08/03 01:50:55;;;;;;;3.40;2.60;;;;;;;20.14;59.25;98953.09;103958;277;38471;-75
2023/08/03 01:53:29;;;;;;;4.30;2.40;;;;;;;20.12;59.32;98945.00;103977;277;38268;-75
2023/08/03 01:56:07;;;;;;;3.40;2.80;;;;;;;20.09;59.47;98948.10;104013;277;39425;-74
2023/08/03 01:58:44;;;;;;;3.70;3.00;;;;;;;20.07;59.42;98947.58;104009;277;38304;-76
2023/08/03 02:01:18;;;;;;;5.10;2.30;;;;;;;20.05;59.52;98938.34;103818;277;39695;-74
2023/08/03 02:03:53;;;;;;;3.50;2.20;;;;;;;20.04;59.54;98929.66;103945;277;39434;-74
2023/08/03 02:06:27;;;;;;;4.20;2.50;;;;;;;20.01;59.65;98930.08;103923;277;38272;-76
2023/08/03 02:09:04;;;;;;;4.90;2.30;;;;;;;20.00;59.66;98930.59;103921;277;39071;-75
2023/08/03 02:11:38;;;;;;;3.80;2.10;;;;;;;19.99;59.63;98929.81;103985;277;38831;-73
2023/08/03 02:14:17;;;;;;;3.80;2.40;;;;;;;19.98;59.82;98938.70;103938;277;39683;-74
2023/08/03 02:16:52;;;;;;;3.90;2.30;;;;;;;19.98;59.86;98946.90;103991;277;38507;-75
2023/08/03 02:19:26;;;;;;;2.90;2.00;;;;;;;19.98;59.75;98940.30;103954;277;38497;-74
2023/08/03 02:22:00;;;;;;;2.70;2.20;;;;;;;20.01;59.81;98941.66;103966;277;38540;-74
2023/08/03 02:24:36;;;;;;;2.70;2.40;;;;;;;20.01;59.70;98941.46;103914;277;39403;-74
2023/08/03 02:27:15;;;;;;;2.40;2.20;;;;;;;20.02;59.61;98928.62;103830;277;38425;-73
2023/08/03 02:29:55;;;;;;;3.40;2.60;;;;;;;20.02;59.66;98921.71;103942;277;38227;-74
2023/08/03 02:32:30;;;;;;;3.50;2.10;;;;;;;20.02;59.65;98920.65;103961;277;38723;-75
2023/08/03 02:35:06;;;;;;;4.30;2.60;;;;;;;20.01;60.18;98945.32;103800;279;40765;-73
2023/08/03 02:37:40;;;;;;;3.90;2.40;;;;;;;20.00;60.72;98963.63;103804;279;38874;-75
2023/08/03 02:40:15;;;;;;;5.40;2.50;;;;;;;19.98;61.36;98975.91;103857;277;40001;-75
2023/08/03 02:42:53;;;;;;;3.10;2.30;;;;;;;19.95;61.50;98950.96;103853;277;38557;-75
2023/08/03 02:45:27;;;;;;;3.10;2.30;;;;;;;19.91;61.62;98951.48;103790;277;38036;-75
2023/08/03 02:48:03;;;;;;;3.10;2.10;;;;;;;19.89;61.78;98953.60;103937;277;38203;-75
2023/08/03 02:50:43;;;;;;;3.20;2.30;;;;;;;19.88;61.85;98939.36;103892;277;39991;-74
2023/08/03 02:53:20;;;;;;;7.10;2.50;;;;;;;19.87;61.77;98957.92;103915;277;38831;-75
2023/08/03 02:55:55;;;;;;;3.50;2.30;;;;;;;19.84;62.00;98961.91;103821;277;38606;-77
2023/08/03 02:58:30;;;;;;;2.20;2.00;;;;;;;19.81;62.01;98972.95;103921;277;38399;-74
2023/08/03 03:01:14;;;;;;;3.10;2.80;;;;;;;19.79;62.16;98983.23;103916;277;38636;-74
2023/08/03 03:03:53;;;;;;;3.00;2.70;;;;;;;19.77;62.03;98996.02;103973;277;38505;-73
2023/08/03 03:06:28;;;;;;;5.70;2.40;;;;;;;19.75;62.12;99004.92;103805;277;38408;-75
2023/08/03 03:09:05;;;;;;;4.30;2.70;;;;;;;19.73;62.26;98993.42;103862;277;174536;-75
2023/08/03 03:11:41;;;;;;;3.50;2.20;;;;;;;19.73;62.08;98999.09;104007;277;38354;-74
2023/08/03 03:14:14;;;;;;;3.60;2.00;;;;;;;19.74;62.14;98996.71;103897;277;38513;-75
2023/08/03 03:16:48;;;;;;;3.10;2.40;;;;;;;19.75;62.26;98981.23;103717;281;38936;-74
2023/08/03 03:19:22;;;;;;;4.80;2.30;;;;;;;19.75;62.15;98994.95;103899;277;38370;-74
2023/08/03 03:21:57;;;;;;;3.00;2.30;;;;;;;19.76;62.12;98984.08;103945;277;38533;-75
2023/08/03 03:24:30;;;;;;;3.70;2.50;;;;;;;19.76;62.04;98968.52;103895;277;40161;-75
2023/08/03 03:27:06;;;;;;;5.30;2.30;;;;;;;19.75;61.94;98931.59;103912;277;38972;-75
2023/08/03 03:29:42;;;;;;;2.60;2.20;;;;;;;19.76;62.07;98914.86;103912;277;39406;-74
2023/08/03 03:32:16;;;;;;;2.60;2.20;;;;;;;19.77;61.96;98911.09;103944;277;39847;-75
2023/08/03 03:34:50;;;;;;;3.70;2.00;;;;;;;19.78;61.86;98888.50;103897;277;38425;-75
2023/08/03 03:37:24;;;;;;;3.50;2.20;;;;;;;19.81;61.83;98819.52;103950;277;38432;-75
2023/08/03 03:39:59;;;;;;;2.70;2.10;;;;;;;19.84;61.63;98783.72;103811;277;38643;-75
2023/08/03 03:42:33;;;;;;;4.20;2.30;;;;;;;19.87;61.54;98845.52;102836;277;1521435;-75
2023/08/03 03:45:09;;;;;;;4.60;2.20;;;;;;;19.90;61.47;98917.10;103927;277;38385;-75
2023/08/03 03:47:45;;;;;;;2.60;2.10;;;;;;;19.91;61.68;98926.54;103987;277;38821;-74
2023/08/03 03:50:27;;;;;;;3.70;2.10;;;;;;;19.91;61.69;98931.09;103791;277;39441;-74
2023/08/03 03:53:03;;;;;;;2.20;2.00;;;;;;;19.92;61.60;98959.40;103797;279;38589;-75
2023/08/03 03:55:41;;;;;;;2.80;2.30;;;;;;;19.92;61.72;98948.36;103896;277;39457;-77
2023/08/03 03:58:16;;;;;;;5.20;2.10;;;;;;;19.93;61.59;98949.29;103874;278;39720;-75
2023/08/03 04:00:55;;;;;;;2.30;1.80;;;;;;;19.95;61.60;98949.45;103921;277;38277;-75
2023/08/03 04:03:32;;;;;;;2.00;1.80;;;;;;;19.98;61.53;98955.04;103992;277;38555;-75
2023/08/03 04:06:08;;;;;;;2.90;1.70;;;;;;;20.01;61.64;98969.91;103940;277;38562;-74
2023/08/03 04:08:42;;;;;;;2.30;1.90;;;;;;;20.06;61.84;98973.89;103922;277;38243;-76
2023/08/03 04:11:17;;;;;;;3.50;2.30;;;;;;;20.10;61.75;98965.99;103937;277;38279;-75
2023/08/03 04:13:53;;;;;;;2.90;2.20;;;;;;;20.16;61.68;98960.02;103943;277;38516;-73
2023/08/03 04:16:29;;;;;;;2.90;1.90;;;;;;;20.18;61.61;98950.15;103975;277;38377;-75
2023/08/03 04:19:04;;;;;;;2.80;1.70;;;;;;;20.21;61.63;98957.92;103960;277;38758;-76
2023/08/03 04:21:40;;;;;;;3.20;1.90;;;;;;;20.22;61.55;98965.00;103998;277;38272;-75
2023/08/03 04:24:18;;;;;;;3.20;1.80;;;;;;;20.24;61.58;98971.38;103780;277;39141;-75
2023/08/03 04:26:52;;;;;;;2.60;2.20;;;;;;;20.25;61.66;98961.70;103836;279;38655;-75
2023/08/03 04:29:29;;;;;;;2.00;1.80;;;;;;;20.26;61.65;98958.99;103993;277;38338;-75
2023/08/03 04:32:06;;;;;;;2.70;2.20;;;;;;;20.27;61.78;98970.23;103974;277;38766;-75
2023/08/03 04:34:48;;;;;;;3.00;2.00;;;;;;;20.27;61.79;98975.45;103951;277;39555;-75
2023/08/03 04:37:23;;;;;;;1.80;1.60;;;;;;;20.30;61.77;98976.27;103970;277;39316;-76
2023/08/03 04:40:01;;;;;;;4.60;1.90;;;;;;;20.32;61.92;98966.60;103934;277;38390;-76
2023/08/03 04:42:39;;;;;;;2.00;1.70;;;;;;;20.36;61.76;98995.60;103845;277;38684;-75
2023/08/03 04:45:14;;;;;;;2.60;1.90;;;;;;;20.40;61.66;98994.53;103985;277;39456;-75
2023/08/03 04:47:49;;;;;;;2.10;1.90;;;;;;;20.46;61.79;98986.54;104031;277;38267;-75
2023/08/03 04:50:26;;;;;;;4.70;1.90;;;;;;;20.51;61.75;98983.18;103955;277;38390;-75
2023/08/03 04:53:01;;;;;;;3.40;1.90;;;;;;;20.57;61.55;98985.52;104059;277;38239;-75
2023/08/03 04:55:36;;;;;;;4.40;2.00;;;;;;;20.65;61.66;98993.88;104027;277;38706;-75
2023/08/03 04:58:13;;;;;;;3.60;2.40;;;;;;;20.71;61.69;98990.39;103902;277;39427;-75
2023/08/03 05:00:47;;;;;;;3.60;2.00;;;;;;;20.83;61.78;99001.20;103990;277;38562;-75
2023/08/03 05:03:24;;;;;;;3.10;1.80;;;;;;;21.10;62.35;99006.95;103965;277;39431;-74
2023/08/03 05:06:07;;;;;;;3.20;1.70;;;;;;;21.76;64.16;99003.56;103969;277;39420;-75
2023/08/03 05:08:44;;;;;;;3.80;2.10;;;;;;;23.08;63.17;99004.98;103993;277;38288;-75
2023/08/03 05:11:18;;;;;;;4.90;1.80;;;;;;;24.07;59.28;99008.33;104109;277;38264;-76
2023/08/03 05:13:55;;;;;;;4.40;1.90;;;;;;;24.30;56.53;99017.10;104026;277;38344;-76
2023/08/03 05:16:29;;;;;;;4.50;1.80;;;;;;;24.24;55.41;99008.13;103895;277;174657;-75
2023/08/03 05:19:05;;;;;;;4.10;2.00;;;;;;;24.17;54.81;99012.15;103967;277;39670;-74
2023/08/03 05:21:44;;;;;;;3.40;2.10;;;;;;;23.99;54.81;99013.59;103986;277;39121;-75
2023/08/03 05:24:23;;;;;;;3.40;1.80;;;;;;;23.81;54.66;99012.39;103962;277;38728;-75
2023/08/03 05:27:01;;;;;;;3.30;2.20;;;;;;;23.65;54.93;98991.23;104049;277;39421;-75
2023/08/03 05:29:40;;;;;;;7.10;1.80;;;;;;;23.44;55.13;99002.33;104064;277;39426;-77
2023/08/03 05:32:15;;;;;;;3.10;1.80;;;;;;;23.21;55.56;99000.00;103905;279;38425;-76
2023/08/03 05:34:51;;;;;;;3.20;2.00;;;;;;;23.00;55.99;99009.10;104049;277;38403;-76
2023/08/03 05:37:26;;;;;;;3.40;1.90;;;;;;;22.80;56.33;99019.46;104057;277;38249;-74
2023/08/03 05:40:00;;;;;;;4.80;2.00;;;;;;;22.60;56.71;99019.52;104006;266;38281;-74
2023/08/03 05:42:38;;;;;;;2.70;1.70;;;;;;;22.47;57.28;99006.80;103815;277;38377;-74
2023/08/03 05:45:39;;;;;;;2.70;1.90;;;;;;;22.35;57.60;98976.39;103858;277;174719;-75
2023/08/03 05:48:19;;;;;;;2.90;1.60;;;;;;;22.27;58.02;98984.02;103948;277;39415;-75
2023/08/03 05:50:56;;;;;;;3.90;1.90;;;;;;;22.22;58.51;99000.30;103913;277;38990;-75
2023/08/03 05:53:36;;;;;;;3.40;1.90;;;;;;;22.17;58.74;98993.87;103940;277;38482;-75
2023/08/03 05:56:16;;;;;;;2.80;1.90;;;;;;;22.14;58.99;98995.40;103952;277;38445;-75
2023/08/03 05:58:52;;;;;;;3.90;1.80;;;;;;;22.17;59.32;99011.06;103953;277;38810;-75
2023/08/03 06:01:29;;;;;;;2.70;2.00;;;;;;;22.23;59.68;99023.05;103796;277;38789;-75
2023/08/03 06:04:07;;;;;;;4.00;1.70;;;;;;;22.31;59.66;99031.25;103945;273;38471;-73
2023/08/03 06:06:44;;;;;;;4.40;1.90;;;;;;;22.40;59.85;99036.48;103965;277;40038;-75
2023/08/03 06:09:27;;;;;;;3.20;1.90;;;;;;;22.54;59.94;99051.95;103848;277;174495;-75
2023/08/03 06:12:04;;;;;;;1.80;1.60;;;;;;;22.77;60.21;99059.33;103964;277;38672;-74
2023/08/03 06:14:41;;;;;;;3.20;1.90;;;;;;;22.97;59.62;99057.70;103964;277;39415;-74
2023/08/03 06:17:17;;;;;;;4.70;1.80;;;;;;;23.04;59.07;99080.90;103940;277;38255;-75
2023/08/03 06:19:52;;;;;;;2.60;1.70;;;;;;;23.08;58.92;99090.39;103927;277;38695;-76
2023/08/03 06:22:31;;;;;;;6.90;2.30;;;;;;;23.07;58.80;99093.67;103948;277;39420;-75
2023/08/03 06:25:09;;;;;;;4.20;1.70;;;;;;;23.07;58.59;99097.83;103912;277;38425;-75
2023/08/03 06:27:45;;;;;;;4.00;1.60;;;;;;;23.07;58.90;99093.14;103986;277;38438;-74
2023/08/03 06:30:22;;;;;;;4.20;2.00;;;;;;;23.08;59.13;99092.45;103929;277;38369;-74
2023/08/03 06:32:58;;;;;;;2.60;1.60;;;;;;;23.06;58.93;99090.55;103922;277;38268;-74
2023/08/03 06:35:41;;;;;;;7.20;2.00;;;;;;;23.07;59.12;99085.33;103879;277;187981;-73
2023/08/03 06:38:17;;;;;;;4.40;2.20;;;;;;;23.08;59.08;99075.12;103915;277;39401;-75
2023/08/03 06:40:51;;;;;;;4.20;1.60;;;;;;;23.08;58.98;99056.74;103978;277;38331;-75
2023/08/03 06:43:26;;;;;;;5.70;1.70;;;;;;;23.17;59.36;99056.79;103998;277;39027;-76
2023/08/03 06:46:01;;;;;;;4.60;2.20;;;;;;;23.37;59.47;99092.45;103966;277;38399;-76
2023/08/03 06:48:43;;;;;;;2.40;1.80;;;;;;;23.62;58.97;99093.46;103793;277;38535;-74
2023/08/03 06:51:19;;;;;;;3.80;2.10;;;;;;;23.87;58.73;99055.30;103974;277;38248;-73
2023/08/03 06:53:55;;;;;;;6.90;1.90;;;;;;;24.04;58.25;99043.20;103989;277;38528;-74
2023/08/03 06:56:31;;;;;;;4.10;1.90;;;;;;;24.16;57.97;99038.91;103864;277;40299;-74
2023/08/03 06:59:09;;;;;;;5.20;1.90;;;;;;;24.25;57.30;99003.78;103926;277;38815;-73
2023/08/03 07:01:46;;;;;;;3.80;1.70;;;;;;;24.23;56.66;98940.14;103945;277;39849;-75
2023/08/03 07:04:21;;;;;;;3.30;1.90;;;;;;;24.21;56.87;98958.63;103948;277;39941;-75
2023/08/03 07:06:58;;;;;;;3.10;1.60;;;;;;;24.18;56.85;98967.84;104000;277;39455;-74
2023/08/03 07:09:31;;;;;;;2.20;1.70;;;;;;;24.16;56.77;99033.80;103960;277;39422;-73
2023/08/03 07:12:11;;;;;;;3.20;1.60;;;;;;;24.19;57.52;99071.24;103974;277;39299;-74
2023/08/03 07:14:48;;;;;;;4.00;1.90;;;;;;;24.24;57.21;99075.72;103802;277;38356;-75
2023/08/03 07:17:24;;;;;;;4.80;2.10;;;;;;;24.36;57.39;99107.40;103885;277;38545;-75
2023/08/03 07:20:01;;;;;;;3.70;2.30;;;;;;;24.50;56.92;99076.21;103895;277;38258;-75
2023/08/03 07:22:38;;;;;;;;;;;;;;;24.56;56.66;99083.94;103829;277;39408;-72
2023/08/03 07:25:12;;;;;;;4.20;1.90;;;;;;;24.50;56.31;99072.55;103937;277;38697;-73
2023/08/03 07:27:48;;;;;;;6.50;2.00;;;;;;;24.39;56.24;99047.73;103926;277;38238;-71
2023/08/03 07:30:22;;;;;;;3.00;1.80;;;;;;;24.30;56.32;99061.40;103954;277;38237;-72
2023/08/03 07:32:58;;;;;;;3.50;1.70;;;;;;;24.25;56.52;99084.00;103957;277;39392;-74
2023/08/03 07:35:34;;;;;;;3.60;1.90;;;;;;;24.22;56.70;99131.52;103977;277;39451;-74
2023/08/03 07:38:08;;;;;;;3.90;1.80;;;;;;;24.24;56.82;99117.25;103960;277;38740;-72
2023/08/03 07:40:44;;;;;;;4.70;2.10;;;;;;;24.23;56.57;99120.36;103941;277;39386;-73
2023/08/03 07:43:19;;;;;;;3.80;1.70;;;;;;;24.21;56.67;99103.44;103955;277;38767;-74
2023/08/03 07:45:57;;;;;;;3.10;1.80;;;;;;;24.23;56.74;99097.77;103961;277;39077;-72
2023/08/03 07:48:32;;;;;;;3.30;1.70;;;;;;;24.26;56.89;99116.02;103998;277;38269;-76
2023/08/03 07:51:14;;;;;;;3.50;2.10;;;;;;;24.30;57.08;99125.04;103944;277;39430;-76
2023/08/03 07:53:50;;;;;;;3.40;2.00;;;;;;;24.32;56.87;99115.96;103808;277;38594;-74
2023/08/03 07:56:30;;;;;;;4.30;1.70;;;;;;;24.34;56.79;99136.88;104050;277;38271;-75
2023/08/03 07:59:06;;;;;;;4.20;2.00;;;;;;;24.42;57.16;99136.85;103981;277;38337;-76
2023/08/03 08:01:43;;;;;;;4.10;1.80;;;;;;;24.45;56.60;99100.20;103773;277;38353;-73
2023/08/03 08:04:18;;;;;;;3.10;1.70;;;;;;;24.38;56.60;99066.44;103954;277;39254;-73
2023/08/03 08:06:52;;;;;;;3.20;1.70;;;;;;;24.31;56.33;99085.06;103928;277;39424;-75
2023/08/03 08:09:29;;;;;;;3.10;1.90;;;;;;;24.26;56.54;99098.83;103897;277;39631;-75
2023/08/03 08:12:08;;;;;;;4.90;1.70;;;;;;;24.21;56.96;99085.83;103946;277;38330;-75
2023/08/03 08:14:42;;;;;;;3.20;1.50;;;;;;;24.13;57.16;99095.13;103937;277;38235;-76
2023/08/03 08:17:16;;;;;;;1.60;1.40;;;;;;;24.07;57.37;99118.25;103974;277;39427;-75
2023/08/03 08:19:52;;;;;;;2.10;1.80;;;;;;;24.01;57.38;99147.88;103988;277;39915;-77
2023/08/03 08:22:26;;;;;;;1.70;1.50;;;;;;;23.95;57.80;99170.55;103875;277;38820;-75
2023/08/03 08:25:03;;;;;;;2.30;1.60;;;;;;;23.89;57.67;99168.16;104015;277;38263;-75
2023/08/03 08:27:40;;;;;;;2.20;1.80;;;;;;;23.80;57.52;99156.23;104030;277;38352;-76
2023/08/03 08:30:18;;;;;;;1.90;1.50;;;;;;;23.70;57.61;99141.27;103874;277;38255;-76
2023/08/03 08:32:54;;;;;;;3.20;1.70;;;;;;;23.62;57.90;99140.73;104037;277;39405;-75
2023/08/03 08:35:33;;;;;;;2.90;1.70;;;;;;;23.58;58.42;99121.84;104016;277;38507;-73
2023/08/03 08:38:09;;;;;;;1.70;1.50;;;;;;;23.52;58.88;99115.58;103947;277;174699;-76
2023/08/03 08:40:47;;;;;;;2.50;1.70;;;;;;;23.43;59.37;99158.73;103996;277;38672;-76
2023/08/03 08:43:24;;;;;;;3.00;2.10;;;;;;;23.37;60.00;99169.58;104027;277;39317;-76
2023/08/03 08:46:01;;;;;;;2.40;1.70;;;;;;;23.29;60.26;99180.64;103808;277;39627;-76
2023/08/03 08:48:40;;;;;;;1.80;1.70;;;;;;;23.20;60.91;99182.14;104007;277;38400;-75
2023/08/03 08:51:14;;;;;;;3.30;1.60;;;;;;;23.11;61.75;99173.68;103828;277;41160;-75
2023/08/03 08:53:48;;;;;;;3.00;1.60;;;;;;;23.03;61.88;99156.60;104007;277;38735;-73
2023/08/03 08:56:22;;;;;;;4.20;1.80;;;;;;;23.00;62.18;99226.14;103881;277;38965;-75
2023/08/03 08:58:58;;;;;;;1.90;1.40;;;;;;;22.97;63.09;99239.08;103833;267;38698;-75
2023/08/03 09:01:51;;;;;;;3.70;1.80;;;;;;;22.91;63.80;99198.59;104024;277;39668;-75
2023/08/03 09:04:33;;;;;;;2.80;1.60;;;;;;;22.87;64.16;99213.96;103934;277;38464;-74
2023/08/03 09:07:10;;;;;;;2.10;1.50;;;;;;;22.82;64.49;99165.74;103985;277;39597;-74
2023/08/03 09:09:47;;;;;;;4.40;1.70;;;;;;;22.76;64.35;99184.41;103968;277;38454;-74
2023/08/03 09:12:28;;;;;;;2.90;1.90;;;;;;;22.69;64.64;99216.20;103981;277;38230;-75
2023/08/03 09:15:07;;;;;;;5.10;1.70;;;;;;;22.66;65.04;99252.50;103958;277;39454;-76
2023/08/03 09:17:44;;;;;;;3.50;1.80;;;;;;;22.60;65.60;99260.58;104002;277;38556;-75
2023/08/03 09:20:31;;;;;;;8.20;1.80;;;;;;;22.52;65.48;99253.42;103975;277;39438;-76
2023/08/03 09:23:06;;;;;;;4.60;1.80;;;;;;;22.49;65.60;99230.30;103763;279;38707;-74
2023/08/03 09:25:53;;;;;;;2.90;1.60;;;;;;;22.47;65.66;99217.05;104024;277;38371;-74
2023/08/03 09:28:40;;;;;;;4.30;1.50;;;;;;;22.44;65.60;99172.36;103914;277;174724;-75
2023/08/03 09:31:26;;;;;;;2.30;1.70;;;;;;;22.42;65.43;99179.02;104025;277;38242;-75
2023/08/03 09:34:03;;;;;;;3.40;1.70;;;;;;;22.37;65.34;99192.64;103961;277;39433;-76
2023/08/03 09:36:40;;;;;;;2.40;1.60;;;;;;;22.33;65.50;99217.43;104001;277;39526;-76
2023/08/03 09:39:16;;;;;;;2.80;1.70;;;;;;;22.31;66.06;99259.34;103952;277;38518;-76
2023/08/03 09:41:53;;;;;;;5.10;1.60;;;;;;;22.28;65.84;99217.90;103766;279;38892;-74
2023/08/03 09:44:33;;;;;;;2.90;1.40;;;;;;;22.25;65.83;99194.63;103953;277;38879;-75
2023/08/03 09:47:09;;;;;;;3.70;1.70;;;;;;;22.23;65.68;99218.66;104009;277;38398;-74
2023/08/03 09:49:45;;;;;;;2.20;1.30;;;;;;;22.20;65.71;99221.23;103986;277;38227;-74
2023/08/03 09:52:24;;;;;;;3.60;1.60;;;;;;;22.16;65.59;99234.99;103975;277;38491;-75
2023/08/03 09:55:12;;;;;;;4.10;1.50;;;;;;;22.11;65.76;99212.05;103962;277;38492;-75
2023/08/03 09:57:55;;;;;;;3.40;1.60;;;;;;;22.05;65.28;99157.96;104014;277;38259;-74
2023/08/03 10:00:29;;;;;;;3.50;1.70;;;;;;;21.98;64.95;99134.36;103947;277;38272;-73
2023/08/03 10:03:09;;;;;;;3.10;1.70;;;;;;;21.91;64.85;99176.65;103975;277;38304;-76
2023/08/03 10:05:53;;;;;;;2.00;1.30;;;;;;;21.86;64.96;99262.42;103975;277;39963;-75
2023/08/03 10:08:34;;;;;;;2.30;1.40;;;;;;;21.83;65.44;99308.16;103952;277;38706;-74
2023/08/03 10:11:16;;;;;;;5.30;1.70;;;;;;;21.80;65.30;99314.73;103755;277;40255;-75
2023/08/03 10:13:52;;;;;;;4.00;1.40;;;;;;;21.75;64.72;99314.10;103907;277;38374;-76
2023/08/03 10:16:26;;;;;;;3.00;1.40;;;;;;;21.72;64.44;99327.27;103959;277;38258;-73
2023/08/03 10:19:00;;;;;;;1.90;1.30;;;;;;;21.69;64.82;99330.38;103916;277;39436;-74
2023/08/03 10:21:35;;;;;;;5.80;1.70;;;;;;;21.68;65.17;99305.30;103932;277;38258;-75
2023/08/03 10:24:17;;;;;;;3.10;1.40;;;;;;;21.66;65.51;99238.56;103915;277;39651;-75
2023/08/03 10:27:12;;;;;;;4.00;1.40;;;;;;;21.62;65.69;99189.75;103836;277;174445;-75
2023/08/03 10:29:59;;;;;;;3.20;1.70;;;;;;;21.58;66.07;99258.73;103947;277;38701;-74
2023/08/03 10:32:37;;;;;;;2.20;1.70;;;;;;;21.58;66.72;99304.48;103797;279;38839;-75
2023/08/03 10:35:38;;;;;;;2.70;1.40;;;;;;;21.59;67.04;99299.08;103935;277;38476;-76
2023/08/03 10:38:23;;;;;;;3.70;1.70;;;;;;;21.54;66.94;99273.45;103958;277;38266;-75
2023/08/03 10:41:27;;;;;;;4.00;1.60;;;;;;;21.52;67.14;99288.71;103917;277;38976;-77
2023/08/03 10:44:28;;;;;;;2.20;1.60;;;;;;;21.50;66.67;99276.76;103914;277;38223;-76
2023/08/03 10:47:02;;;;;;;1.70;1.40;;;;;;;21.45;67.12;99258.75;103890;279;39594;-76
2023/08/03 10:49:57;;;;;;;2.30;1.30;;;;;;;21.40;67.16;99233.86;103923;277;39420;-75
2023/08/03 10:52:38;;;;;;;2.80;1.60;;;;;;;21.39;67.80;99213.83;103921;277;38238;-73
2023/08/03 10:55:31;;;;;;;2.30;1.40;;;;;;;21.42;67.93;99207.12;103809;277;39635;-76
2023/08/03 10:58:05;;;;;;;2.10;1.70;;;;;;;21.50;68.10;99151.85;103834;277;39424;-75
2023/08/03 11:00:53;;;;;;;3.40;1.60;;;;;;;21.54;68.05;99132.54;103903;277;39427;-75
2023/08/03 11:03:41;;;;;;;2.50;1.70;;;;;;;21.59;68.15;99141.09;104065;277;38318;-74
2023/08/03 11:06:16;;;;;;;4.00;1.50;;;;;;;21.58;68.17;99200.64;104068;277;38518;-75
2023/08/03 11:08:52;;;;;;;2.20;2.00;;;;;;;21.55;68.11;99225.08;103959;265;39408;-75
2023/08/03 11:11:32;;;;;;;2.40;1.50;;;;;;;21.52;68.21;99205.03;103995;277;39996;-75
2023/08/03 11:14:09;;;;;;;2.30;1.60;;;;;;;21.50;68.44;99227.81;103994;277;38796;-76
2023/08/03 11:16:43;;;;;;;2.70;1.60;;;;;;;21.49;68.96;99295.11;103985;277;38311;-74
2023/08/03 11:19:17;;;;;;;3.00;1.70;;;;;;;21.47;69.36;99301.55;103357;277;894367;-69
2023/08/03 11:21:52;;;;;;;3.50;2.10;;;;;;;21.43;69.66;99289.50;104001;277;38262;-74
2023/08/03 11:24:32;;;;;;;2.60;1.60;;;;;;;21.41;70.19;99321.86;103356;277;895630;-74
2023/08/03 11:27:13;;;;;;;3.20;1.80;;;;;;;21.40;70.64;99343.61;103996;277;39422;-75
2023/08/03 11:29:48;;;;;;;4.20;2.20;;;;;;;21.38;70.92;99348.70;103977;277;38254;-76
2023/08/03 11:32:30;;;;;;;3.50;1.90;;;;;;;21.39;71.09;99343.30;103899;279;38263;-74
2023/08/03 11:35:12;;;;;;;2.50;1.70;;;;;;;21.39;71.41;99353.63;104029;277;38947;-74
2023/08/03 11:37:51;;;;;;;4.50;2.20;;;;;;;21.34;71.12;99366.97;104080;277;38386;-74
2023/08/03 11:40:28;;;;;;;3.40;2.10;;;;;;;21.28;71.38;99353.25;104029;277;38493;-74
2023/08/03 11:43:08;;;;;;;2.10;1.70;;;;;;;21.23;71.34;99340.26;101653;277;3314798;-76
2023/08/03 11:45:49;;;;;;;2.70;1.90;;;;;;;21.20;71.53;99327.48;103965;266;38669;-76
2023/08/03 11:48:27;;;;;;;2.90;2.10;;;;;;;21.16;71.96;99310.08;103908;277;174802;-75
2023/08/03 11:51:05;;;;;;;2.80;1.80;;;;;;;21.11;71.91;99315.36;104012;277;40363;-75
2023/08/03 11:53:40;;;;;;;2.30;1.80;;;;;;;21.08;72.09;99290.23;103976;275;38273;-76
2023/08/03 11:56:17;;;;;;;2.60;1.70;;;;;;;21.07;72.04;99305.61;104000;277;38859;-74
2023/08/03 11:58:52;;;;;;;2.70;1.90;;;;;;;21.04;71.87;99322.84;103807;278;38572;-74
2023/08/03 12:01:28;;;;;;;2.80;1.80;;;;;;;21.01;72.21;99287.61;104017;277;39611;-75
2023/08/03 12:04:20;;;;;;;3.70;1.90;;;;;;;21.05;72.17;99261.90;103955;277;38230;-75
2023/08/03 12:06:56;;;;;;;2.60;1.90;;;;;;;21.10;72.11;99236.38;104001;277;38566;-75
2023/08/03 12:09:36;;;;;;;3.00;1.70;;;;;;;21.15;71.59;99241.02;103993;277;39435;-75
2023/08/03 12:12:13;;;;;;;5.10;1.80;;;;;;;21.19;71.62;99249.66;103860;277;38330;-75
2023/08/03 12:14:50;;;;;;;2.50;1.50;;;;;;;21.23;71.21;99252.06;104042;277;38557;-74
2023/08/03 12:17:30;;;;;;;3.30;1.80;;;;;;;21.26;71.00;99273.27;103444;277;895342;-75
2023/08/03 12:20:11;;;;;;;3.20;1.70;;;;;;;21.28;70.92;99253.21;104026;277;40127;-77
2023/08/03 12:22:50;;;;;;;3.10;1.90;;;;;;;21.29;70.53;99237.29;104095;277;39886;-75